Time;durP1;ratioP1;P1;durP2;ratioP2;P2;SDS_P1;SDS_P2;PMS_P1;PMS_P2;Temp;Humidity;BMP_temperature;BMP_pressure;BME280_temperature;BME280_humidity;BME280_pressure;Samples;Min_cycle;Max_cycle;Signal;HPM_P1;HPM_P2
2021/07/16 00:02:11;;;;;;;17.13;8.10;;;;;;;;;;766694;180;918820;-78
2021/07/16 00:04:37;;;;;;;15.83;6.40;;;;;;;;;;762219;183;816464;-78
2021/07/16 00:07:03;;;;;;;11.60;7.47;;;;;;;;;;759990;183;913571;-78
2021/07/16 00:09:28;;;;;;;16.33;7.20;;;;;;;;;;758361;184;808148;-78
2021/07/16 00:11:54;;;;;;;14.10;8.47;;;;;;;;;;755953;184;916644;-77
2021/07/16 00:14:20;;;;;;;7.70;6.10;;;;;;;;;;751885;184;919914;-77
2021/07/16 00:16:46;;;;;;;15.73;6.73;;;;;;;;;;749706;184;918774;-77
2021/07/16 00:19:12;;;;;;;8.30;5.90;;;;;;;;;;756666;185;872645;-77
2021/07/16 00:21:38;;;;;;;22.20;6.83;;;;;;;;;;760226;183;913394;-77
2021/07/16 00:24:03;;;;;;;18.62;6.90;;;;;;;;;;760799;183;916384;-77
2021/07/16 00:26:29;;;;;;;15.40;6.67;;;;;;;;;;768651;181;917042;-78
2021/07/16 00:28:55;;;;;;;9.77;6.10;;;;;;;;;;764227;182;815347;-78
2021/07/16 00:31:21;;;;;;;15.77;6.87;;;;;;;;;;765295;180;929161;-78
2021/07/16 00:33:47;;;;;;;8.63;7.20;;;;;;;;;;767643;182;916900;-78
2021/07/16 00:36:13;;;;;;;19.30;8.10;;;;;;;;;;762601;182;1034127;-79
2021/07/16 00:38:40;;;;;;;12.53;8.33;;;;;;;;;;763577;182;820624;-78
2021/07/16 00:41:05;;;;;;;19.87;8.53;;;;;;;;;;759572;182;915930;-78
2021/07/16 00:43:31;;;;;;;21.43;8.10;;;;;;;;;;762347;182;918805;-78
2021/07/16 00:45:57;;;;;;;15.13;6.90;;;;;;;;;;759720;183;913910;-77
2021/07/16 00:48:23;;;;;;;11.60;5.60;;;;;;;;;;761765;183;914730;-77
2021/07/16 00:50:49;;;;;;;14.63;7.20;;;;;;;;;;758700;184;903408;-77
2021/07/16 00:53:15;;;;;;;26.47;7.17;;;;;;;;;;753429;184;815601;-77
2021/07/16 00:55:41;;;;;;;13.10;7.33;;;;;;;;;;737916;190;911087;-77
2021/07/16 00:58:07;;;;;;;20.33;7.33;;;;;;;;;;741578;190;917685;-77
2021/07/16 01:00:33;;;;;;;17.73;6.63;;;;;;;;;;754449;183;1530377;-77
2021/07/16 01:02:59;;;;;;;30.40;8.50;;;;;;;;;;761038;183;815088;-77
2021/07/16 01:05:24;;;;;;;16.90;7.00;;;;;;;;;;761995;181;918214;-75
2021/07/16 01:07:50;;;;;;;14.33;6.90;;;;;;;;;;762212;183;919391;-76
2021/07/16 01:10:16;;;;;;;10.43;5.90;;;;;;;;;;762039;183;812592;-77
2021/07/16 01:12:42;;;;;;;19.67;8.00;;;;;;;;;;760502;183;820140;-76
2021/07/16 01:15:08;;;;;;;29.83;8.47;;;;;;;;;;765223;184;917890;-76
2021/07/16 01:17:34;;;;;;;13.27;8.77;;;;;;;;;;757324;183;925353;-76
2021/07/16 01:20:01;;;;;;;18.60;7.45;;;;;;;;;;761557;183;914722;-75
2021/07/16 01:22:27;;;;;;;29.73;8.73;;;;;;;;;;763839;183;877112;-75
2021/07/16 01:24:53;;;;;;;28.77;9.40;;;;;;;;;;760601;183;915710;-76
2021/07/16 01:27:19;;;;;;;18.93;8.30;;;;;;;;;;760178;183;893502;-76
2021/07/16 01:29:45;;;;;;;33.10;9.30;;;;;;;;;;762074;183;816685;-76
2021/07/16 01:32:11;;;;;;;29.60;8.73;;;;;;;;;;763274;182;814645;-77
2021/07/16 01:34:37;;;;;;;25.13;9.10;;;;;;;;;;760565;183;917394;-75
2021/07/16 01:37:02;;;;;;;36.43;9.60;;;;;;;;;;757855;181;918112;-76
2021/07/16 01:39:28;;;;;;;35.80;8.67;;;;;;;;;;769668;182;813969;-76
2021/07/16 01:41:54;;;;;;;16.80;9.50;;;;;;;;;;763180;180;919190;-75
2021/07/16 01:44:20;;;;;;;20.70;9.13;;;;;;;;;;761903;182;919580;-75
2021/07/16 01:46:46;;;;;;;22.57;9.27;;;;;;;;;;768402;182;919067;-75
2021/07/16 01:49:12;;;;;;;20.57;8.50;;;;;;;;;;762494;182;919407;-74
2021/07/16 01:51:38;;;;;;;15.85;9.23;;;;;;;;;;760611;182;916883;-75
2021/07/16 01:54:03;;;;;;;18.90;9.30;;;;;;;;;;769096;182;919170;-76
2021/07/16 01:56:29;;;;;;;17.53;9.30;;;;;;;;;;760432;183;918613;-75
2021/07/16 01:58:55;;;;;;;23.93;9.43;;;;;;;;;;760921;183;1020753;-75
2021/07/16 02:01:24;;;;;;;17.43;9.10;;;;;;;;;;761112;183;915805;-75
2021/07/16 02:03:47;;;;;;;25.83;10.50;;;;;;;;;;766784;183;815909;-75
2021/07/16 02:06:13;;;;;;;19.50;8.37;;;;;;;;;;761211;183;918504;-75
2021/07/16 02:08:40;;;;;;;31.02;10.73;;;;;;;;;;760536;183;911235;-75
2021/07/16 02:11:05;;;;;;;21.03;8.90;;;;;;;;;;765762;183;871834;-75
2021/07/16 02:13:31;;;;;;;22.65;8.60;;;;;;;;;;760429;183;925921;-75
2021/07/16 02:15:57;;;;;;;33.10;10.13;;;;;;;;;;759256;183;938735;-76
2021/07/16 02:18:23;;;;;;;18.00;8.97;;;;;;;;;;766097;183;903021;-74
2021/07/16 02:20:48;;;;;;;20.03;8.53;;;;;;;;;;755545;183;1020473;-75
2021/07/16 02:23:15;;;;;;;14.33;8.07;;;;;;;;;;760021;183;917826;-76
2021/07/16 02:25:41;;;;;;;23.53;9.17;;;;;;;;;;761687;184;813521;-76
2021/07/16 02:28:06;;;;;;;32.57;9.00;;;;;;;;;;767005;183;916833;-76
2021/07/16 02:30:32;;;;;;;15.60;7.33;;;;;;;;;;762282;182;811849;-75
2021/07/16 02:32:58;;;;;;;14.07;8.27;;;;;;;;;;764402;183;815925;-76
2021/07/16 02:35:24;;;;;;;13.30;8.03;;;;;;;;;;766751;182;919290;-75
2021/07/16 02:37:50;;;;;;;22.23;10.80;;;;;;;;;;761271;183;917161;-76
2021/07/16 02:40:16;;;;;;;25.10;9.20;;;;;;;;;;761122;183;918681;-76
2021/07/16 02:42:42;;;;;;;18.73;7.90;;;;;;;;;;764354;183;917450;-77
2021/07/16 02:45:07;;;;;;;12.83;7.73;;;;;;;;;;763607;183;917474;-76
2021/07/16 02:47:33;;;;;;;18.43;7.80;;;;;;;;;;760275;183;917422;-76
2021/07/16 02:49:59;;;;;;;12.50;7.93;;;;;;;;;;768480;182;905348;-74
2021/07/16 02:52:25;;;;;;;24.87;7.77;;;;;;;;;;761636;182;917836;-76
2021/07/16 02:54:51;;;;;;;19.60;7.77;;;;;;;;;;761626;182;918120;-76
2021/07/16 02:57:17;;;;;;;11.37;6.67;;;;;;;;;;760006;182;919900;-76
2021/07/16 02:59:42;;;;;;;11.90;6.47;;;;;;;;;;764337;183;919182;-76
2021/07/16 03:02:08;;;;;;;24.90;8.80;;;;;;;;;;762159;182;917586;-76
2021/07/16 03:04:34;;;;;;;12.23;8.77;;;;;;;;;;760532;182;918639;-75
2021/07/16 03:07:00;;;;;;;23.60;8.73;;;;;;;;;;769801;182;709858;-74
2021/07/16 03:09:26;;;;;;;18.70;7.17;;;;;;;;;;760009;183;919142;-75
2021/07/16 03:11:52;;;;;;;11.10;7.43;;;;;;;;;;760650;183;918274;-75
2021/07/16 03:14:17;;;;;;;12.67;7.40;;;;;;;;;;764994;183;917495;-76
2021/07/16 03:16:43;;;;;;;12.07;6.60;;;;;;;;;;760068;183;919256;-75
2021/07/16 03:19:09;;;;;;;7.20;5.90;;;;;;;;;;759857;183;921368;-75
2021/07/16 03:21:35;;;;;;;28.97;7.20;;;;;;;;;;757393;183;1021552;-75
2021/07/16 03:24:01;;;;;;;12.53;7.03;;;;;;;;;;761215;183;916088;-75
2021/07/16 03:26:27;;;;;;;9.77;6.40;;;;;;;;;;758445;183;923347;-74
2021/07/16 03:28:53;;;;;;;19.03;6.60;;;;;;;;;;759839;183;919033;-74
2021/07/16 03:31:18;;;;;;;13.17;6.27;;;;;;;;;;766620;183;814328;-75
2021/07/16 03:33:44;;;;;;;10.07;6.20;;;;;;;;;;761390;183;919464;-76
2021/07/16 03:36:10;;;;;;;13.10;7.27;;;;;;;;;;759565;182;1017391;-76
2021/07/16 03:38:37;;;;;;;38.07;7.73;;;;;;;;;;764190;183;913476;-76
2021/07/16 03:41:02;;;;;;;16.13;7.43;;;;;;;;;;761710;183;914401;-75
2021/07/16 03:43:28;;;;;;;11.60;8.13;;;;;;;;;;759153;183;999105;-75
2021/07/16 03:45:53;;;;;;;21.63;7.40;;;;;;;;;;760231;183;1832319;-75
2021/07/16 03:48:19;;;;;;;19.03;8.50;;;;;;;;;;759563;183;918454;-76
2021/07/16 03:50:47;;;;;;;20.43;8.50;;;;;;;;;;761093;183;919464;-76
2021/07/16 03:53:11;;;;;;;20.93;10.53;;;;;;;;;;763462;183;919133;-76
2021/07/16 03:55:37;;;;;;;13.33;9.03;;;;;;;;;;765402;183;909193;-76
2021/07/16 03:58:05;;;;;;;25.20;7.90;;;;;;;;;;760972;183;921411;-76
2021/07/16 04:00:29;;;;;;;16.37;9.30;;;;;;;;;;762120;181;920029;-76
2021/07/16 04:02:57;;;;;;;20.30;10.30;;;;;;;;;;768215;182;851833;-76
2021/07/16 04:05:23;;;;;;;16.80;7.90;;;;;;;;;;761288;182;1023316;-75
2021/07/16 04:07:50;;;;;;;18.90;9.60;;;;;;;;;;761732;182;919292;-76
2021/07/16 04:10:15;;;;;;;25.25;9.00;;;;;;;;;;765667;182;1021804;-76
2021/07/16 04:12:41;;;;;;;17.70;9.73;;;;;;;;;;760674;182;916832;-75
2021/07/16 04:15:07;;;;;;;22.47;10.80;;;;;;;;;;761334;182;920967;-74
2021/07/16 04:17:33;;;;;;;23.30;12.07;;;;;;;;;;759734;182;919375;-74
2021/07/16 04:19:59;;;;;;;30.63;11.20;;;;;;;;;;765639;183;964980;-74
2021/07/16 04:22:26;;;;;;;34.87;15.77;;;;;;;;;;759192;183;919445;-74
2021/07/16 04:24:52;;;;;;;34.93;16.77;;;;;;;;;;759613;183;921919;-75
2021/07/16 04:27:17;;;;;;;35.63;18.17;;;;;;;;;;767054;183;918020;-75
2021/07/16 04:29:43;;;;;;;37.67;17.10;;;;;;;;;;759312;183;915466;-75
2021/07/16 04:32:09;;;;;;;36.37;18.63;;;;;;;;;;760818;181;917987;-73
2021/07/16 04:34:35;;;;;;;41.43;20.67;;;;;;;;;;764863;183;916513;-74
2021/07/16 04:37:01;;;;;;;42.13;23.07;;;;;;;;;;760657;182;915019;-73
2021/07/16 04:39:27;;;;;;;29.97;20.63;;;;;;;;;;759607;183;919133;-74
2021/07/16 04:41:53;;;;;;;37.67;22.17;;;;;;;;;;757136;183;1431623;-76
2021/07/16 04:44:18;;;;;;;38.07;20.80;;;;;;;;;;765262;183;914233;-76
2021/07/16 04:46:44;;;;;;;34.90;19.30;;;;;;;;;;761790;183;914722;-77
2021/07/16 04:49:10;;;;;;;31.63;20.33;;;;;;;;;;761552;183;909583;-75
2021/07/16 04:51:36;;;;;;;29.33;20.90;;;;;;;;;;766034;183;909917;-75
2021/07/16 04:54:02;;;;;;;35.43;21.63;;;;;;;;;;761282;183;915435;-76
2021/07/16 04:56:28;;;;;;;27.08;21.08;;;;;;;;;;762076;183;820318;-77
2021/07/16 04:58:54;;;;;;;34.63;21.87;;;;;;;;;;765739;183;911238;-78
2021/07/16 05:01:21;;;;;;;31.00;21.23;;;;;;;;;;760283;183;922012;-78
2021/07/16 05:03:47;;;;;;;31.80;21.07;;;;;;;;;;758969;183;905484;-79
2021/07/16 05:06:13;;;;;;;29.07;20.70;;;;;;;;;;758874;181;1007462;-76
2021/07/16 05:08:39;;;;;;;24.60;18.80;;;;;;;;;;766066;183;808974;-77
2021/07/16 05:11:05;;;;;;;24.70;17.40;;;;;;;;;;760089;183;1022671;-79
2021/07/16 05:13:32;;;;;;;27.00;19.20;;;;;;;;;;763397;182;919449;-77
2021/07/16 05:15:57;;;;;;;23.23;16.43;;;;;;;;;;766067;182;917901;-79
2021/07/16 05:18:22;;;;;;;30.87;18.27;;;;;;;;;;762332;182;918615;-79
2021/07/16 05:20:48;;;;;;;27.57;19.67;;;;;;;;;;762856;182;912882;-75
2021/07/16 05:23:14;;;;;;;24.47;19.00;;;;;;;;;;768435;182;885196;-78
2021/07/16 05:25:40;;;;;;;24.90;18.40;;;;;;;;;;764240;182;816781;-77
2021/07/16 05:28:06;;;;;;;27.73;18.30;;;;;;;;;;763237;182;1020818;-79
2021/07/16 05:30:32;;;;;;;22.20;16.27;;;;;;;;;;761628;182;918565;-77
2021/07/16 05:32:57;;;;;;;27.53;16.70;;;;;;;;;;764936;183;1020957;-79
2021/07/16 05:35:23;;;;;;;24.87;13.87;;;;;;;;;;763312;181;816355;-79
2021/07/16 05:37:49;;;;;;;17.63;13.13;;;;;;;;;;761383;183;925705;-77
2021/07/16 05:40:15;;;;;;;15.00;13.43;;;;;;;;;;767658;182;919040;-79
2021/07/16 05:42:41;;;;;;;17.47;11.20;;;;;;;;;;764591;183;920924;-79
2021/07/16 05:45:07;;;;;;;15.47;12.10;;;;;;;;;;760639;183;919190;-80
2021/07/16 05:47:33;;;;;;;13.73;11.50;;;;;;;;;;766576;183;890572;-79
2021/07/16 05:49:59;;;;;;;13.67;10.80;;;;;;;;;;762361;183;919262;-81
2021/07/16 05:52:26;;;;;;;14.23;11.27;;;;;;;;;;761756;183;969470;-84
2021/07/16 05:54:51;;;;;;;21.43;12.13;;;;;;;;;;766337;183;917710;-86
2021/07/16 05:57:16;;;;;;;13.83;10.60;;;;;;;;;;763660;183;917158;-81
2021/07/16 05:59:42;;;;;;;12.33;9.47;;;;;;;;;;764112;183;863446;-83
2021/07/16 06:02:09;;;;;;;13.23;9.70;;;;;;;;;;763358;183;926037;-81
2021/07/16 06:04:34;;;;;;;13.00;10.60;;;;;;;;;;770460;183;643992;-84
2021/07/16 06:07:00;;;;;;;11.33;9.33;;;;;;;;;;763668;183;836148;-82
2021/07/16 06:09:25;;;;;;;11.80;8.30;;;;;;;;;;762570;183;1018815;-83
2021/07/16 06:11:51;;;;;;;16.10;9.47;;;;;;;;;;766117;183;919209;-81
2021/07/16 06:14:18;;;;;;;13.53;9.77;;;;;;;;;;763067;183;895225;-82
2021/07/16 06:16:43;;;;;;;18.27;9.07;;;;;;;;;;763824;181;910306;-81
2021/07/16 06:19:09;;;;;;;10.50;9.07;;;;;;;;;;766291;183;742587;-84
2021/07/16 06:21:35;;;;;;;10.17;7.93;;;;;;;;;;760941;183;1021513;-81
2021/07/16 06:24:01;;;;;;;15.37;8.90;;;;;;;;;;762888;182;918709;-82
2021/07/16 06:26:26;;;;;;;8.80;7.90;;;;;;;;;;764156;182;919763;-81
2021/07/16 06:28:52;;;;;;;12.00;8.87;;;;;;;;;;764700;182;905506;-83
2021/07/16 06:31:18;;;;;;;12.20;9.97;;;;;;;;;;762750;182;919528;-83
2021/07/16 06:33:44;;;;;;;13.27;9.77;;;;;;;;;;759128;183;918492;-82
2021/07/16 06:36:10;;;;;;;16.00;8.23;;;;;;;;;;767252;182;919270;-85
2021/07/16 06:38:36;;;;;;;12.47;8.50;;;;;;;;;;764873;182;919102;-85
2021/07/16 06:41:02;;;;;;;16.55;10.05;;;;;;;;;;761431;182;1024683;-81
2021/07/16 06:43:27;;;;;;;14.40;9.30;;;;;;;;;;767979;183;934127;-84
2021/07/16 06:45:53;;;;;;;14.27;10.45;;;;;;;;;;760934;181;918827;-82
2021/07/16 06:48:19;;;;;;;15.10;11.80;;;;;;;;;;759049;183;1021334;-82
2021/07/16 06:50:45;;;;;;;14.73;11.60;;;;;;;;;;763709;183;1083185;-81
2021/07/16 06:53:11;;;;;;;15.77;11.27;;;;;;;;;;762822;183;918597;-82
2021/07/16 06:55:37;;;;;;;18.50;12.20;;;;;;;;;;762518;183;867862;-80
2021/07/16 06:58:03;;;;;;;14.83;12.00;;;;;;;;;;759351;183;911668;-81
2021/07/16 07:00:30;;;;;;;19.20;12.23;;;;;;;;;;764952;184;816384;-80
2021/07/16 07:02:54;;;;;;;15.70;11.20;;;;;;;;;;760081;183;919386;-80
2021/07/16 07:05:24;;;;;;;17.33;12.18;;;;;;;;;;761248;183;818406;-78
2021/07/16 07:07:46;;;;;;;15.40;11.90;;;;;;;;;;763330;183;885842;-77
2021/07/16 07:10:12;;;;;;;20.67;12.07;;;;;;;;;;762796;183;919170;-77
2021/07/16 07:12:38;;;;;;;17.43;12.03;;;;;;;;;;760049;183;919496;-81
2021/07/16 07:15:04;;;;;;;15.43;11.40;;;;;;;;;;762473;182;927950;-76
2021/07/16 07:17:31;;;;;;;19.70;11.70;;;;;;;;;;757706;183;919753;-76
2021/07/16 07:19:56;;;;;;;13.27;10.87;;;;;;;;;;760372;183;917648;-79
2021/07/16 07:22:22;;;;;;;12.60;10.80;;;;;;;;;;757190;182;1020880;-77
2021/07/16 07:24:47;;;;;;;15.07;11.30;;;;;;;;;;760219;183;915184;-77
2021/07/16 07:27:13;;;;;;;13.33;11.57;;;;;;;;;;761995;183;918075;-78
2021/07/16 07:29:39;;;;;;;17.63;10.37;;;;;;;;;;759418;184;919034;-77
2021/07/16 07:32:06;;;;;;;14.97;10.53;;;;;;;;;;767110;183;870145;-80
2021/07/16 07:34:32;;;;;;;17.30;11.40;;;;;;;;;;762668;183;919019;-78
2021/07/16 07:36:57;;;;;;;17.23;10.97;;;;;;;;;;766417;183;799664;-79
2021/07/16 07:39:23;;;;;;;17.30;10.73;;;;;;;;;;769831;182;931360;-73
2021/07/16 07:41:49;;;;;;;15.90;10.37;;;;;;;;;;763576;182;970972;-77
2021/07/16 07:44:15;;;;;;;14.53;10.70;;;;;;;;;;764651;182;777780;-78
2021/07/16 07:46:41;;;;;;;12.00;9.35;;;;;;;;;;763967;182;902901;-75
2021/07/16 07:49:07;;;;;;;16.20;10.87;;;;;;;;;;762750;182;918708;-76
2021/07/16 07:51:33;;;;;;;12.47;11.13;;;;;;;;;;759179;183;918323;-78
2021/07/16 07:53:59;;;;;;;19.43;10.13;;;;;;;;;;761246;182;915757;-77
2021/07/16 07:56:25;;;;;;;10.00;8.90;;;;;;;;;;764461;183;918085;-79
2021/07/16 07:58:51;;;;;;;13.70;9.73;;;;;;;;;;759267;183;947200;-76
2021/07/16 08:01:17;;;;;;;11.50;9.50;;;;;;;;;;760831;180;915343;-77
2021/07/16 08:03:43;;;;;;;12.50;9.60;;;;;;;;;;767471;183;805269;-82
2021/07/16 08:06:09;;;;;;;19.13;9.57;;;;;;;;;;761399;183;1012090;-76
2021/07/16 08:08:35;;;;;;;14.40;10.53;;;;;;;;;;762300;183;911435;-76
2021/07/16 08:11:00;;;;;;;16.13;10.80;;;;;;;;;;766183;184;855497;-76
2021/07/16 08:13:27;;;;;;;18.43;11.17;;;;;;;;;;761743;183;864539;-76
2021/07/16 08:15:52;;;;;;;18.37;11.20;;;;;;;;;;763643;183;919439;-81
2021/07/16 08:18:18;;;;;;;12.47;10.83;;;;;;;;;;762969;183;816655;-77
2021/07/16 08:20:44;;;;;;;14.10;9.30;;;;;;;;;;765844;183;913655;-77
2021/07/16 08:23:10;;;;;;;18.33;10.13;;;;;;;;;;761212;183;824340;-77
2021/07/16 08:25:36;;;;;;;12.07;10.57;;;;;;;;;;764845;183;817755;-77
2021/07/16 08:28:01;;;;;;;11.90;9.95;;;;;;;;;;757192;184;816578;-80
2021/07/16 08:30:27;;;;;;;13.93;9.27;;;;;;;;;;761445;183;918590;-75
2021/07/16 08:32:53;;;;;;;11.90;9.00;;;;;;;;;;764461;183;725342;-75
2021/07/16 08:35:19;;;;;;;13.13;11.33;;;;;;;;;;766578;182;745936;-74
2021/07/16 08:37:45;;;;;;;13.63;9.93;;;;;;;;;;762183;183;815248;-76
2021/07/16 08:40:11;;;;;;;14.95;11.07;;;;;;;;;;760664;183;932236;-77
2021/07/16 08:42:37;;;;;;;12.03;9.80;;;;;;;;;;759065;183;919373;-76
2021/07/16 08:45:05;;;;;;;22.27;10.90;;;;;;;;;;760975;182;933191;-73
2021/07/16 08:47:31;;;;;;;13.30;10.23;;;;;;;;;;763348;181;919218;-75
2021/07/16 08:49:57;;;;;;;16.30;12.00;;;;;;;;;;763308;182;919399;-76
2021/07/16 08:52:22;;;;;;;16.43;10.93;;;;;;;;;;766822;182;918856;-74
2021/07/16 08:54:50;;;;;;;13.67;11.00;;;;;;;;;;762453;182;1020483;-77
2021/07/16 08:57:15;;;;;;;21.70;11.47;;;;;;;;;;762089;183;919107;-75
2021/07/16 08:59:40;;;;;;;15.90;10.33;;;;;;;;;;767353;182;820777;-76
2021/07/16 09:02:06;;;;;;;14.37;11.83;;;;;;;;;;762395;182;921374;-73
2021/07/16 09:04:32;;;;;;;15.30;10.70;;;;;;;;;;760942;182;816370;-72
2021/07/16 09:06:58;;;;;;;14.00;11.07;;;;;;;;;;758369;182;932592;-76
2021/07/16 09:09:24;;;;;;;14.23;10.50;;;;;;;;;;760464;183;919064;-75
2021/07/16 09:11:51;;;;;;;13.70;9.97;;;;;;;;;;761495;183;919535;-77
2021/07/16 09:14:21;;;;;;;17.57;11.43;;;;;;;;;;759460;183;817216;-74
2021/07/16 09:16:52;;;;;;;15.20;12.00;;;;;;;;;;765429;183;817058;-74
2021/07/16 09:19:26;;;;;;;20.13;11.83;;;;;;;;;;764505;183;918955;-75
2021/07/16 09:21:58;;;;;;;12.77;10.17;;;;;;;;;;759708;183;918563;-74
2021/07/16 09:24:24;;;;;;;16.57;11.20;;;;;;;;;;761818;183;921781;-77
2021/07/16 09:26:50;;;;;;;13.50;11.30;;;;;;;;;;762958;183;920314;-74
2021/07/16 09:29:16;;;;;;;16.97;11.50;;;;;;;;;;765065;183;920081;-74
2021/07/16 09:31:42;;;;;;;15.20;11.13;;;;;;;;;;761528;183;814011;-74
2021/07/16 09:34:08;;;;;;;18.10;13.07;;;;;;;;;;759654;183;921201;-75
2021/07/16 09:36:34;;;;;;;14.20;12.63;;;;;;;;;;767504;183;860106;-72
2021/07/16 09:39:05;;;;;;;16.77;13.90;;;;;;;;;;761097;183;850424;-76
2021/07/16 09:41:31;;;;;;;15.25;12.77;;;;;;;;;;764230;183;816339;-75
2021/07/16 09:43:58;;;;;;;16.17;11.17;;;;;;;;;;759273;183;920076;-76
2021/07/16 09:46:24;;;;;;;17.60;12.53;;;;;;;;;;755525;183;921946;-76
2021/07/16 09:48:49;;;;;;;14.03;11.00;;;;;;;;;;760277;183;919165;-73
2021/07/16 09:51:25;;;;;;;14.35;12.85;;;;;;;;;;760148;183;919169;-75
2021/07/16 09:53:51;;;;;;;15.80;13.13;;;;;;;;;;765538;184;917841;-75
2021/07/16 09:56:19;;;;;;;17.30;12.27;;;;;;;;;;764798;183;778488;-79
2021/07/16 09:58:45;;;;;;;16.60;13.30;;;;;;;;;;763553;182;913507;-73
2021/07/16 10:01:11;;;;;;;20.10;11.80;;;;;;;;;;760417;182;914631;-78
2021/07/16 10:03:37;;;;;;;17.43;12.37;;;;;;;;;;764635;182;880593;-75
2021/07/16 10:06:03;;;;;;;23.53;13.97;;;;;;;;;;763940;182;713470;-75
2021/07/16 10:08:31;;;;;;;16.50;11.33;;;;;;;;;;764207;182;919454;-73
2021/07/16 10:10:56;;;;;;;19.67;12.17;;;;;;;;;;769269;182;919842;-75
2021/07/16 10:13:22;;;;;;;27.90;14.80;;;;;;;;;;762654;182;919948;-74
2021/07/16 10:15:48;;;;;;;28.00;15.40;;;;;;;;;;761322;182;919278;-75
2021/07/16 10:18:14;;;;;;;20.97;15.13;;;;;;;;;;762538;183;918507;-73
2021/07/16 10:20:40;;;;;;;21.00;14.70;;;;;;;;;;764579;183;919845;-74
2021/07/16 10:23:06;;;;;;;17.17;14.30;;;;;;;;;;758350;183;919499;-72
2021/07/16 10:25:31;;;;;;;22.53;14.57;;;;;;;;;;760504;181;918568;-70
2021/07/16 10:27:57;;;;;;;19.17;13.60;;;;;;;;;;764817;183;917446;-73
2021/07/16 10:30:26;;;;;;;20.43;13.30;;;;;;;;;;759592;183;918250;-73
2021/07/16 10:32:50;;;;;;;21.20;15.63;;;;;;;;;;758203;183;918691;-73
2021/07/16 10:35:17;;;;;;;18.77;12.20;;;;;;;;;;763653;183;919248;-73
2021/07/16 10:37:43;;;;;;;85.43;36.53;;;;;;;;;;759806;183;1019920;-72
2021/07/16 10:40:09;;;;;;;25.13;16.33;;;;;;;;;;759939;184;918649;-75
2021/07/16 10:42:37;;;;;;;19.30;14.73;;;;;;;;;;757963;183;918904;-77
2021/07/16 10:45:04;;;;;;;17.80;15.17;;;;;;;;;;760452;184;810083;-76
2021/07/16 10:47:49;;;;;;;28.17;15.53;;;;;;;;;;762740;183;816713;-71
2021/07/16 10:50:13;;;;;;;18.87;15.60;;;;;;;;;;758408;183;1019068;-73
2021/07/16 10:52:40;;;;;;;24.93;14.10;;;;;;;;;;759242;183;918573;-75
2021/07/16 10:55:06;;;;;;;16.23;14.53;;;;;;;;;;764989;182;922246;-78
2021/07/16 10:57:31;;;;;;;24.30;13.90;;;;;;;;;;758419;183;915951;-73
2021/07/16 10:59:58;;;;;;;17.00;14.27;;;;;;;;;;761033;183;893351;-76
2021/07/16 11:02:29;;;;;;;21.80;17.00;;;;;;;;;;762293;180;914861;-75
2021/07/16 11:04:55;;;;;;;16.47;12.63;;;;;;;;;;763247;183;778664;-76
2021/07/16 11:07:27;;;;;;;22.70;16.00;;;;;;;;;;762706;183;914338;-74
2021/07/16 11:09:52;;;;;;;24.50;15.03;;;;;;;;;;762295;183;914566;-77
2021/07/16 11:12:18;;;;;;;16.40;13.97;;;;;;;;;;761030;183;920249;-75
2021/07/16 11:14:44;;;;;;;19.60;13.63;;;;;;;;;;763351;182;713566;-78
2021/07/16 11:17:10;;;;;;;18.13;13.87;;;;;;;;;;765333;182;818908;-74
2021/07/16 11:19:36;;;;;;;17.93;12.73;;;;;;;;;;761604;182;910067;-77
2021/07/16 11:22:02;;;;;;;15.17;13.57;;;;;;;;;;765447;182;918114;-74
2021/07/16 11:24:31;;;;;;;19.97;13.33;;;;;;;;;;763360;182;817085;-75
2021/07/16 11:26:53;;;;;;;14.00;12.50;;;;;;;;;;761476;182;860251;-77
2021/07/16 11:29:19;;;;;;;17.10;12.27;;;;;;;;;;768600;183;619760;-74
2021/07/16 11:31:45;;;;;;;16.53;13.00;;;;;;;;;;759693;183;916922;-74
2021/07/16 11:34:13;;;;;;;14.75;11.65;;;;;;;;;;759332;183;919066;-74
2021/07/16 11:36:37;;;;;;;20.53;14.17;;;;;;;;;;766574;183;816801;-77
2021/07/16 11:39:03;;;;;;;18.00;13.40;;;;;;;;;;761653;183;920512;-75
2021/07/16 11:41:31;;;;;;;14.93;12.20;;;;;;;;;;758115;183;929666;-73
2021/07/16 11:44:00;;;;;;;16.70;12.90;;;;;;;;;;762637;183;788224;-73
2021/07/16 11:46:25;;;;;;;18.47;11.93;;;;;;;;;;769783;183;818355;-75
2021/07/16 11:48:51;;;;;;;15.13;13.53;;;;;;;;;;763635;183;812377;-73
2021/07/16 11:51:17;;;;;;;15.23;13.03;;;;;;;;;;763366;183;858153;-73
2021/07/16 11:53:43;;;;;;;13.40;11.67;;;;;;;;;;764121;183;815185;-75
2021/07/16 11:56:11;;;;;;;16.80;13.63;;;;;;;;;;761053;183;919085;-72
2021/07/16 11:58:36;;;;;;;14.20;12.80;;;;;;;;;;760360;183;918217;-70
2021/07/16 12:01:02;;;;;;;13.90;11.47;;;;;;;;;;759301;183;917967;-71
2021/07/16 12:03:28;;;;;;;18.90;12.50;;;;;;;;;;764258;183;919204;-74
2021/07/16 12:05:54;;;;;;;16.57;13.77;;;;;;;;;;759492;183;916678;-74
2021/07/16 12:08:21;;;;;;;16.00;13.60;;;;;;;;;;759780;183;917920;-72
2021/07/16 12:10:47;;;;;;;13.23;11.87;;;;;;;;;;765432;183;916467;-71
2021/07/16 12:13:12;;;;;;;20.27;13.10;;;;;;;;;;761826;183;914240;-73
2021/07/16 12:15:38;;;;;;;21.95;15.65;;;;;;;;;;757703;184;918233;-71
2021/07/16 12:18:04;;;;;;;17.40;13.83;;;;;;;;;;765945;183;914119;-73
2021/07/16 12:20:30;;;;;;;17.57;12.60;;;;;;;;;;759266;183;919771;-72
2021/07/16 12:22:56;;;;;;;19.52;11.73;;;;;;;;;;760401;181;1210889;-72
2021/07/16 12:25:22;;;;;;;14.30;12.30;;;;;;;;;;763648;182;913074;-71
2021/07/16 12:27:53;;;;;;;14.70;12.95;;;;;;;;;;761433;182;918926;-73
2021/07/16 12:30:19;;;;;;;20.83;12.90;;;;;;;;;;763902;182;921324;-74
2021/07/16 12:32:45;;;;;;;14.97;10.70;;;;;;;;;;761710;182;919407;-72
2021/07/16 12:35:12;;;;;;;17.53;11.20;;;;;;;;;;769518;183;918859;-73
2021/07/16 12:37:39;;;;;;;18.30;12.80;;;;;;;;;;762854;182;920942;-71
2021/07/16 12:40:04;;;;;;;22.83;11.43;;;;;;;;;;762216;182;1021484;-72
2021/07/16 12:42:30;;;;;;;15.33;12.60;;;;;;;;;;762313;183;918879;-71
2021/07/16 12:45:01;;;;;;;21.90;12.90;;;;;;;;;;767377;183;918847;-74
2021/07/16 12:47:26;;;;;;;14.10;12.63;;;;;;;;;;763646;182;918985;-75
2021/07/16 12:49:52;;;;;;;17.83;12.93;;;;;;;;;;763243;182;816743;-73
2021/07/16 12:52:18;;;;;;;14.70;12.30;;;;;;;;;;764409;183;882378;-73
2021/07/16 12:54:44;;;;;;;19.13;13.50;;;;;;;;;;759878;183;918392;-72
2021/07/16 12:57:10;;;;;;;23.23;11.90;;;;;;;;;;760110;183;918201;-72
2021/07/16 12:59:37;;;;;;;15.82;13.50;;;;;;;;;;762180;183;916613;-72
2021/07/16 13:02:02;;;;;;;13.83;11.83;;;;;;;;;;761116;183;938538;-70
2021/07/16 13:04:31;;;;;;;19.43;12.97;;;;;;;;;;763271;183;919118;-72
2021/07/16 13:06:55;;;;;;;16.93;12.00;;;;;;;;;;761650;183;815676;-75
2021/07/16 13:09:23;;;;;;;15.10;12.27;;;;;;;;;;765641;183;816024;-72
2021/07/16 13:11:54;;;;;;;14.27;12.77;;;;;;;;;;762138;183;919075;-74
2021/07/16 13:14:20;;;;;;;16.80;13.17;;;;;;;;;;763364;182;817358;-73
2021/07/16 13:16:46;;;;;;;19.43;13.30;;;;;;;;;;760221;183;919213;-71
2021/07/16 13:19:12;;;;;;;18.13;11.60;;;;;;;;;;761484;183;918301;-77
2021/07/16 13:21:38;;;;;;;14.60;11.60;;;;;;;;;;759962;181;817218;-71
2021/07/16 13:24:04;;;;;;;13.97;12.57;;;;;;;;;;758649;183;919429;-73
2021/07/16 13:26:30;;;;;;;16.07;12.17;;;;;;;;;;765403;183;792479;-73
2021/07/16 13:28:57;;;;;;;18.70;12.57;;;;;;;;;;759689;183;919808;-74
2021/07/16 13:31:21;;;;;;;15.90;11.90;;;;;;;;;;762376;183;918141;-74
2021/07/16 13:33:47;;;;;;;18.70;14.33;;;;;;;;;;766596;181;919436;-70
2021/07/16 13:36:13;;;;;;;24.30;11.17;;;;;;;;;;763624;182;918767;-73
2021/07/16 13:38:39;;;;;;;19.33;11.60;;;;;;;;;;760560;182;813578;-73
2021/07/16 13:41:05;;;;;;;17.03;11.90;;;;;;;;;;767147;182;922836;-72
2021/07/16 13:43:31;;;;;;;13.97;11.03;;;;;;;;;;762046;182;918299;-74
2021/07/16 13:45:56;;;;;;;26.33;13.17;;;;;;;;;;759952;182;918501;-70
2021/07/16 13:48:22;;;;;;;19.57;12.10;;;;;;;;;;763518;182;814752;-70
2021/07/16 13:50:49;;;;;;;21.63;12.47;;;;;;;;;;768273;182;919020;-71
2021/07/16 13:53:14;;;;;;;16.37;12.53;;;;;;;;;;763690;183;925950;-76
2021/07/16 13:55:40;;;;;;;15.90;12.27;;;;;;;;;;758422;183;1447786;-71
2021/07/16 13:58:06;;;;;;;18.43;12.80;;;;;;;;;;765519;183;919626;-70
2021/07/16 14:00:32;;;;;;;16.07;11.53;;;;;;;;;;761683;183;1046161;-70
2021/07/16 14:02:57;;;;;;;15.90;11.27;;;;;;;;;;761096;183;919560;-70